<?xml version="1.0" encoding="UTF-8" standalone="no" ?>
<gpx xmlns="http://www.topografix.com/GPX/1/1" xmlns:xsi="http://www.w3.org/2001/XMLSchema-instance" xsi:schemaLocation="http://www.topografix.com/GPX/1/1 http://www.topografix.com/GPX/1/1/gpx.xsd" version="1.1" creator="VisuGPX - https://www.visugpx.com">
  <metadata>
    <name>Milla promenade</name>
    <desc><![CDATA[Trace AlpineQuest 02/03/2014 15:42:11]]></desc>
  </metadata>
  <trk>
    <name><![CDATA[Milla promenade]]></name>
    <trkseg>
      <trkpt lat="48.58411" lon="6.05424">
        <ele>236.6</ele>
        <time>2014-03-02T14:48:35Z</time>
      </trkpt>
      <trkpt lat="48.58402" lon="6.05441">
        <ele>236.6</ele>
        <time>2014-03-02T14:48:40Z</time>
      </trkpt>
      <trkpt lat="48.58414" lon="6.05437">
        <ele>235.9</ele>
        <time>2014-03-02T14:48:55Z</time>
      </trkpt>
      <trkpt lat="48.58432" lon="6.05464">
        <ele>233.7</ele>
        <time>2014-03-02T14:49:20Z</time>
      </trkpt>
      <trkpt lat="48.5844" lon="6.05466">
        <ele>233.8</ele>
        <time>2014-03-02T14:49:25Z</time>
      </trkpt>
      <trkpt lat="48.58441" lon="6.05486">
        <ele>234.1</ele>
        <time>2014-03-02T14:49:57Z</time>
      </trkpt>
      <trkpt lat="48.58449" lon="6.05489">
        <ele>234</ele>
        <time>2014-03-02T14:50:06Z</time>
      </trkpt>
      <trkpt lat="48.58451" lon="6.05516">
        <ele>232.9</ele>
        <time>2014-03-02T14:50:24Z</time>
      </trkpt>
      <trkpt lat="48.58478" lon="6.05552">
        <ele>230.9</ele>
        <time>2014-03-02T14:51:00Z</time>
      </trkpt>
      <trkpt lat="48.58493" lon="6.05602">
        <ele>222.9</ele>
        <time>2014-03-02T14:51:40Z</time>
      </trkpt>
      <trkpt lat="48.58504" lon="6.05616">
        <ele>226.9</ele>
        <time>2014-03-02T14:52:18Z</time>
      </trkpt>
      <trkpt lat="48.58504" lon="6.05627">
        <ele>229.4</ele>
        <time>2014-03-02T14:52:37Z</time>
      </trkpt>
      <trkpt lat="48.58521" lon="6.0566">
        <ele>228.5</ele>
        <time>2014-03-02T14:53:04Z</time>
      </trkpt>
      <trkpt lat="48.58548" lon="6.05651">
        <ele>232.5</ele>
        <time>2014-03-02T14:53:51Z</time>
      </trkpt>
      <trkpt lat="48.58553" lon="6.05668">
        <ele>233.3</ele>
        <time>2014-03-02T14:54:07Z</time>
      </trkpt>
      <trkpt lat="48.5855" lon="6.05675">
        <ele>233.3</ele>
        <time>2014-03-02T14:54:17Z</time>
      </trkpt>
      <trkpt lat="48.58565" lon="6.057">
        <ele>232.6</ele>
        <time>2014-03-02T14:54:39Z</time>
      </trkpt>
      <trkpt lat="48.58563" lon="6.05711">
        <ele>232.7</ele>
        <time>2014-03-02T14:55:15Z</time>
      </trkpt>
      <trkpt lat="48.58602" lon="6.05783">
        <ele>230.6</ele>
        <time>2014-03-02T14:56:12Z</time>
      </trkpt>
      <trkpt lat="48.58632" lon="6.05858">
        <ele>228.9</ele>
        <time>2014-03-02T14:57:09Z</time>
      </trkpt>
      <trkpt lat="48.5864" lon="6.05888">
        <ele>228.3</ele>
        <time>2014-03-02T14:57:35Z</time>
      </trkpt>
      <trkpt lat="48.58644" lon="6.05889">
        <ele>227.9</ele>
        <time>2014-03-02T14:57:46Z</time>
      </trkpt>
      <trkpt lat="48.58644" lon="6.05904">
        <ele>229.8</ele>
        <time>2014-03-02T14:58:18Z</time>
      </trkpt>
      <trkpt lat="48.5865" lon="6.05909">
        <ele>230</ele>
        <time>2014-03-02T14:58:28Z</time>
      </trkpt>
      <trkpt lat="48.58647" lon="6.0591">
        <ele>230.1</ele>
        <time>2014-03-02T14:58:34Z</time>
      </trkpt>
      <trkpt lat="48.5865" lon="6.05922">
        <ele>229.8</ele>
        <time>2014-03-02T14:58:46Z</time>
      </trkpt>
      <trkpt lat="48.58687" lon="6.05974">
        <ele>226.9</ele>
        <time>2014-03-02T14:59:35Z</time>
      </trkpt>
      <trkpt lat="48.58701" lon="6.05967">
        <ele>225.7</ele>
        <time>2014-03-02T14:59:47Z</time>
      </trkpt>
      <trkpt lat="48.58679" lon="6.05973">
        <ele>225.7</ele>
        <time>2014-03-02T15:00:02Z</time>
      </trkpt>
      <trkpt lat="48.58679" lon="6.06021">
        <ele>230.5</ele>
        <time>2014-03-02T15:00:53Z</time>
      </trkpt>
      <trkpt lat="48.58606" lon="6.06076">
        <ele>232.6</ele>
        <time>2014-03-02T15:02:28Z</time>
      </trkpt>
      <trkpt lat="48.5858" lon="6.06108">
        <ele>233.4</ele>
        <time>2014-03-02T15:03:00Z</time>
      </trkpt>
      <trkpt lat="48.58585" lon="6.06103">
        <ele>233.7</ele>
        <time>2014-03-02T15:03:09Z</time>
      </trkpt>
      <trkpt lat="48.58581" lon="6.06097">
        <ele>234.2</ele>
        <time>2014-03-02T15:03:27Z</time>
      </trkpt>
      <trkpt lat="48.58566" lon="6.06104">
        <ele>234</ele>
        <time>2014-03-02T15:03:43Z</time>
      </trkpt>
      <trkpt lat="48.58556" lon="6.06122">
        <ele>233.2</ele>
        <time>2014-03-02T15:04:18Z</time>
      </trkpt>
      <trkpt lat="48.58559" lon="6.06122">
        <ele>233.2</ele>
        <time>2014-03-02T15:04:22Z</time>
      </trkpt>
      <trkpt lat="48.58568" lon="6.06108">
        <ele>232.6</ele>
        <time>2014-03-02T15:04:46Z</time>
      </trkpt>
      <trkpt lat="48.58567" lon="6.06099">
        <ele>232.6</ele>
        <time>2014-03-02T15:04:54Z</time>
      </trkpt>
      <trkpt lat="48.58537" lon="6.06087">
        <ele>231.3</ele>
        <time>2014-03-02T15:05:24Z</time>
      </trkpt>
      <trkpt lat="48.58514" lon="6.06064">
        <ele>231.8</ele>
        <time>2014-03-02T15:06:13Z</time>
      </trkpt>
      <trkpt lat="48.58488" lon="6.06066">
        <ele>232.1</ele>
        <time>2014-03-02T15:06:33Z</time>
      </trkpt>
      <trkpt lat="48.58483" lon="6.06061">
        <ele>232.2</ele>
        <time>2014-03-02T15:06:40Z</time>
      </trkpt>
      <trkpt lat="48.58454" lon="6.06069">
        <ele>232.8</ele>
        <time>2014-03-02T15:07:44Z</time>
      </trkpt>
      <trkpt lat="48.58446" lon="6.0612">
        <ele>227.5</ele>
        <time>2014-03-02T15:08:14Z</time>
      </trkpt>
      <trkpt lat="48.58447" lon="6.06135">
        <ele>226.2</ele>
        <time>2014-03-02T15:08:23Z</time>
      </trkpt>
      <trkpt lat="48.58441" lon="6.0615">
        <ele>225.3</ele>
        <time>2014-03-02T15:08:32Z</time>
      </trkpt>
      <trkpt lat="48.58453" lon="6.06155">
        <ele>226.3</ele>
        <time>2014-03-02T15:08:46Z</time>
      </trkpt>
      <trkpt lat="48.58452" lon="6.06159">
        <ele>226.2</ele>
        <time>2014-03-02T15:08:52Z</time>
      </trkpt>
      <trkpt lat="48.58437" lon="6.06168">
        <ele>228.3</ele>
        <time>2014-03-02T15:09:12Z</time>
      </trkpt>
      <trkpt lat="48.58423" lon="6.06163">
        <ele>230.7</ele>
        <time>2014-03-02T15:09:34Z</time>
      </trkpt>
      <trkpt lat="48.58404" lon="6.06174">
        <ele>232</ele>
        <time>2014-03-02T15:09:56Z</time>
      </trkpt>
      <trkpt lat="48.58394" lon="6.0617">
        <ele>232.9</ele>
        <time>2014-03-02T15:10:10Z</time>
      </trkpt>
      <trkpt lat="48.58388" lon="6.06177">
        <ele>233.4</ele>
        <time>2014-03-02T15:10:16Z</time>
      </trkpt>
      <trkpt lat="48.58382" lon="6.06172">
        <ele>235.1</ele>
        <time>2014-03-02T15:10:22Z</time>
      </trkpt>
      <trkpt lat="48.58379" lon="6.06191">
        <ele>233.9</ele>
        <time>2014-03-02T15:10:32Z</time>
      </trkpt>
      <trkpt lat="48.58385" lon="6.06207">
        <ele>231.6</ele>
        <time>2014-03-02T15:10:50Z</time>
      </trkpt>
      <trkpt lat="48.58383" lon="6.06221">
        <ele>229</ele>
        <time>2014-03-02T15:10:58Z</time>
      </trkpt>
      <trkpt lat="48.58389" lon="6.06233">
        <ele>225.3</ele>
        <time>2014-03-02T15:11:12Z</time>
      </trkpt>
      <trkpt lat="48.58395" lon="6.06235">
        <ele>224.8</ele>
        <time>2014-03-02T15:11:16Z</time>
      </trkpt>
      <trkpt lat="48.584" lon="6.0628">
        <ele>224</ele>
        <time>2014-03-02T15:11:41Z</time>
      </trkpt>
      <trkpt lat="48.58389" lon="6.06292">
        <ele>225.5</ele>
        <time>2014-03-02T15:11:52Z</time>
      </trkpt>
      <trkpt lat="48.58366" lon="6.06302">
        <ele>229</ele>
        <time>2014-03-02T15:12:16Z</time>
      </trkpt>
      <trkpt lat="48.58346" lon="6.06296">
        <ele>230.9</ele>
        <time>2014-03-02T15:12:36Z</time>
      </trkpt>
      <trkpt lat="48.58309" lon="6.06316">
        <ele>234.5</ele>
        <time>2014-03-02T15:13:49Z</time>
      </trkpt>
      <trkpt lat="48.58304" lon="6.06312">
        <ele>234.4</ele>
        <time>2014-03-02T15:14:05Z</time>
      </trkpt>
      <trkpt lat="48.58273" lon="6.06349">
        <ele>234.4</ele>
        <time>2014-03-02T15:14:37Z</time>
      </trkpt>
      <trkpt lat="48.58253" lon="6.06365">
        <ele>237.5</ele>
        <time>2014-03-02T15:15:20Z</time>
      </trkpt>
      <trkpt lat="48.5826" lon="6.0636">
        <ele>238.9</ele>
        <time>2014-03-02T15:15:32Z</time>
      </trkpt>
      <trkpt lat="48.58253" lon="6.06366">
        <ele>240.9</ele>
        <time>2014-03-02T15:16:17Z</time>
      </trkpt>
      <trkpt lat="48.58262" lon="6.06359">
        <ele>243.8</ele>
        <time>2014-03-02T15:16:39Z</time>
      </trkpt>
      <trkpt lat="48.58252" lon="6.06358">
        <ele>244</ele>
        <time>2014-03-02T15:17:11Z</time>
      </trkpt>
      <trkpt lat="48.58181" lon="6.0645">
        <ele>244.7</ele>
        <time>2014-03-02T15:18:23Z</time>
      </trkpt>
      <trkpt lat="48.58166" lon="6.06504">
        <ele>242.7</ele>
        <time>2014-03-02T15:18:55Z</time>
      </trkpt>
      <trkpt lat="48.58167" lon="6.06523">
        <ele>236.8</ele>
        <time>2014-03-02T15:19:03Z</time>
      </trkpt>
      <trkpt lat="48.58183" lon="6.06541">
        <ele>233.9</ele>
        <time>2014-03-02T15:19:17Z</time>
      </trkpt>
      <trkpt lat="48.58188" lon="6.06559">
        <ele>230.8</ele>
        <time>2014-03-02T15:19:33Z</time>
      </trkpt>
      <trkpt lat="48.58195" lon="6.06563">
        <ele>228.5</ele>
        <time>2014-03-02T15:19:44Z</time>
      </trkpt>
      <trkpt lat="48.58208" lon="6.06585">
        <ele>228.3</ele>
        <time>2014-03-02T15:20:06Z</time>
      </trkpt>
      <trkpt lat="48.58228" lon="6.06603">
        <ele>227.4</ele>
        <time>2014-03-02T15:20:26Z</time>
      </trkpt>
      <trkpt lat="48.58229" lon="6.06616">
        <ele>226.8</ele>
        <time>2014-03-02T15:20:36Z</time>
      </trkpt>
      <trkpt lat="48.58235" lon="6.06621">
        <ele>225.8</ele>
        <time>2014-03-02T15:20:46Z</time>
      </trkpt>
      <trkpt lat="48.58246" lon="6.06629">
        <ele>224.4</ele>
        <time>2014-03-02T15:20:56Z</time>
      </trkpt>
      <trkpt lat="48.58266" lon="6.0663">
        <ele>224.7</ele>
        <time>2014-03-02T15:21:08Z</time>
      </trkpt>
      <trkpt lat="48.58266" lon="6.06638">
        <ele>227.4</ele>
        <time>2014-03-02T15:22:24Z</time>
      </trkpt>
      <trkpt lat="48.58264" lon="6.06631">
        <ele>229.4</ele>
        <time>2014-03-02T15:23:06Z</time>
      </trkpt>
      <trkpt lat="48.58271" lon="6.06629">
        <ele>229.4</ele>
        <time>2014-03-02T15:23:29Z</time>
      </trkpt>
      <trkpt lat="48.58263" lon="6.06639">
        <ele>231.4</ele>
        <time>2014-03-02T15:24:07Z</time>
      </trkpt>
      <trkpt lat="48.58269" lon="6.06637">
        <ele>232.2</ele>
        <time>2014-03-02T15:24:16Z</time>
      </trkpt>
      <trkpt lat="48.58265" lon="6.06641">
        <ele>234</ele>
        <time>2014-03-02T15:24:44Z</time>
      </trkpt>
      <trkpt lat="48.58275" lon="6.06634">
        <ele>237.7</ele>
        <time>2014-03-02T15:25:27Z</time>
      </trkpt>
      <trkpt lat="48.58271" lon="6.06634">
        <ele>238.3</ele>
        <time>2014-03-02T15:25:47Z</time>
      </trkpt>
      <trkpt lat="48.58267" lon="6.06646">
        <ele>238.4</ele>
        <time>2014-03-02T15:26:07Z</time>
      </trkpt>
      <trkpt lat="48.58288" lon="6.06667">
        <ele>237.5</ele>
        <time>2014-03-02T15:26:37Z</time>
      </trkpt>
      <trkpt lat="48.58326" lon="6.0669">
        <ele>236.4</ele>
        <time>2014-03-02T15:27:11Z</time>
      </trkpt>
      <trkpt lat="48.58337" lon="6.0669">
        <ele>236.9</ele>
        <time>2014-03-02T15:27:24Z</time>
      </trkpt>
      <trkpt lat="48.58342" lon="6.06648">
        <ele>237.1</ele>
        <time>2014-03-02T15:27:54Z</time>
      </trkpt>
      <trkpt lat="48.58354" lon="6.06616">
        <ele>237.1</ele>
        <time>2014-03-02T15:28:16Z</time>
      </trkpt>
      <trkpt lat="48.58352" lon="6.0661">
        <ele>238</ele>
        <time>2014-03-02T15:28:17Z</time>
      </trkpt>
      <trkpt lat="48.58357" lon="6.06605">
        <ele>238.6</ele>
        <time>2014-03-02T15:28:27Z</time>
      </trkpt>
      <trkpt lat="48.58379" lon="6.06603">
        <ele>237.3</ele>
        <time>2014-03-02T15:28:48Z</time>
      </trkpt>
      <trkpt lat="48.58388" lon="6.06606">
        <ele>237.3</ele>
        <time>2014-03-02T15:28:59Z</time>
      </trkpt>
      <trkpt lat="48.58384" lon="6.06614">
        <ele>236.7</ele>
        <time>2014-03-02T15:29:08Z</time>
      </trkpt>
      <trkpt lat="48.58412" lon="6.06621">
        <ele>236.6</ele>
        <time>2014-03-02T15:29:31Z</time>
      </trkpt>
      <trkpt lat="48.58436" lon="6.06639">
        <ele>236.5</ele>
        <time>2014-03-02T15:29:55Z</time>
      </trkpt>
      <trkpt lat="48.58443" lon="6.06638">
        <ele>237.4</ele>
        <time>2014-03-02T15:29:56Z</time>
      </trkpt>
      <trkpt lat="48.58455" lon="6.06666">
        <ele>237</ele>
        <time>2014-03-02T15:30:22Z</time>
      </trkpt>
      <trkpt lat="48.58488" lon="6.06705">
        <ele>236.8</ele>
        <time>2014-03-02T15:31:03Z</time>
      </trkpt>
      <trkpt lat="48.58502" lon="6.06728">
        <ele>235.9</ele>
        <time>2014-03-02T15:31:25Z</time>
      </trkpt>
      <trkpt lat="48.58522" lon="6.0674">
        <ele>235.7</ele>
        <time>2014-03-02T15:31:45Z</time>
      </trkpt>
      <trkpt lat="48.58531" lon="6.06741">
        <ele>230.3</ele>
        <time>2014-03-02T15:32:33Z</time>
      </trkpt>
      <trkpt lat="48.58539" lon="6.06758">
        <ele>230.2</ele>
        <time>2014-03-02T15:32:49Z</time>
      </trkpt>
      <trkpt lat="48.5854" lon="6.06803">
        <ele>230.5</ele>
        <time>2014-03-02T15:33:25Z</time>
      </trkpt>
      <trkpt lat="48.58547" lon="6.0682">
        <ele>230.7</ele>
        <time>2014-03-02T15:33:49Z</time>
      </trkpt>
      <trkpt lat="48.58545" lon="6.06863">
        <ele>230.1</ele>
        <time>2014-03-02T15:35:29Z</time>
      </trkpt>
      <trkpt lat="48.5855" lon="6.0689">
        <ele>229.8</ele>
        <time>2014-03-02T15:35:50Z</time>
      </trkpt>
      <trkpt lat="48.5854" lon="6.06933">
        <ele>229.6</ele>
        <time>2014-03-02T15:36:37Z</time>
      </trkpt>
      <trkpt lat="48.58539" lon="6.06991">
        <ele>230.4</ele>
        <time>2014-03-02T15:37:39Z</time>
      </trkpt>
      <trkpt lat="48.58532" lon="6.07055">
        <ele>229.8</ele>
        <time>2014-03-02T15:38:28Z</time>
      </trkpt>
      <trkpt lat="48.58534" lon="6.07066">
        <ele>229.5</ele>
        <time>2014-03-02T15:38:36Z</time>
      </trkpt>
      <trkpt lat="48.58544" lon="6.07069">
        <ele>229.2</ele>
        <time>2014-03-02T15:38:53Z</time>
      </trkpt>
      <trkpt lat="48.58537" lon="6.07069">
        <ele>228.8</ele>
        <time>2014-03-02T15:39:01Z</time>
      </trkpt>
      <trkpt lat="48.5855" lon="6.07075">
        <ele>228.3</ele>
        <time>2014-03-02T15:39:16Z</time>
      </trkpt>
      <trkpt lat="48.58596" lon="6.07082">
        <ele>235.7</ele>
        <time>2014-03-02T15:40:03Z</time>
      </trkpt>
      <trkpt lat="48.58648" lon="6.07081">
        <ele>233.7</ele>
        <time>2014-03-02T15:40:50Z</time>
      </trkpt>
      <trkpt lat="48.58716" lon="6.07095">
        <ele>241</ele>
        <time>2014-03-02T15:42:47Z</time>
      </trkpt>
      <trkpt lat="48.58747" lon="6.0711">
        <ele>243.3</ele>
        <time>2014-03-02T15:43:35Z</time>
      </trkpt>
      <trkpt lat="48.58773" lon="6.07112">
        <ele>246.1</ele>
        <time>2014-03-02T15:44:15Z</time>
      </trkpt>
      <trkpt lat="48.58792" lon="6.07061">
        <ele>248.8</ele>
        <time>2014-03-02T15:45:01Z</time>
      </trkpt>
      <trkpt lat="48.58804" lon="6.07012">
        <ele>250.3</ele>
        <time>2014-03-02T15:45:29Z</time>
      </trkpt>
      <trkpt lat="48.58824" lon="6.06968">
        <ele>251.2</ele>
        <time>2014-03-02T15:46:00Z</time>
      </trkpt>
      <trkpt lat="48.58865" lon="6.06924">
        <ele>252.4</ele>
        <time>2014-03-02T15:46:42Z</time>
      </trkpt>
      <trkpt lat="48.58871" lon="6.06904">
        <ele>252.9</ele>
        <time>2014-03-02T15:46:57Z</time>
      </trkpt>
      <trkpt lat="48.58893" lon="6.06889">
        <ele>252.4</ele>
        <time>2014-03-02T15:47:16Z</time>
      </trkpt>
      <trkpt lat="48.58911" lon="6.06849">
        <ele>251.9</ele>
        <time>2014-03-02T15:47:53Z</time>
      </trkpt>
      <trkpt lat="48.58908" lon="6.06833">
        <ele>251.9</ele>
        <time>2014-03-02T15:48:02Z</time>
      </trkpt>
      <trkpt lat="48.58939" lon="6.06783">
        <ele>250.7</ele>
        <time>2014-03-02T15:48:47Z</time>
      </trkpt>
      <trkpt lat="48.58967" lon="6.06714">
        <ele>249.4</ele>
        <time>2014-03-02T15:49:35Z</time>
      </trkpt>
      <trkpt lat="48.59015" lon="6.06674">
        <ele>249.3</ele>
        <time>2014-03-02T15:50:32Z</time>
      </trkpt>
      <trkpt lat="48.59072" lon="6.06651">
        <ele>251</ele>
        <time>2014-03-02T15:52:22Z</time>
      </trkpt>
      <trkpt lat="48.59085" lon="6.06633">
        <ele>251.1</ele>
        <time>2014-03-02T15:53:03Z</time>
      </trkpt>
      <trkpt lat="48.59113" lon="6.06628">
        <ele>251.6</ele>
        <time>2014-03-02T15:53:31Z</time>
      </trkpt>
      <trkpt lat="48.59115" lon="6.0662">
        <ele>253.6</ele>
        <time>2014-03-02T15:53:54Z</time>
      </trkpt>
      <trkpt lat="48.59144" lon="6.06583">
        <ele>254.6</ele>
        <time>2014-03-02T15:54:58Z</time>
      </trkpt>
      <trkpt lat="48.59143" lon="6.06577">
        <ele>255.5</ele>
        <time>2014-03-02T15:55:02Z</time>
      </trkpt>
      <trkpt lat="48.59156" lon="6.06554">
        <ele>256.8</ele>
        <time>2014-03-02T15:55:42Z</time>
      </trkpt>
      <trkpt lat="48.59177" lon="6.06499">
        <ele>257.9</ele>
        <time>2014-03-02T15:56:28Z</time>
      </trkpt>
      <trkpt lat="48.59179" lon="6.06477">
        <ele>258.3</ele>
        <time>2014-03-02T15:56:47Z</time>
      </trkpt>
      <trkpt lat="48.59198" lon="6.06434">
        <ele>259.6</ele>
        <time>2014-03-02T15:57:15Z</time>
      </trkpt>
      <trkpt lat="48.59208" lon="6.06363">
        <ele>262.6</ele>
        <time>2014-03-02T15:57:58Z</time>
      </trkpt>
      <trkpt lat="48.59227" lon="6.06333">
        <ele>266.3</ele>
        <time>2014-03-02T15:58:32Z</time>
      </trkpt>
      <trkpt lat="48.59216" lon="6.06306">
        <ele>267.3</ele>
        <time>2014-03-02T15:58:59Z</time>
      </trkpt>
      <trkpt lat="48.59203" lon="6.06308">
        <ele>267.9</ele>
        <time>2014-03-02T15:59:12Z</time>
      </trkpt>
      <trkpt lat="48.59181" lon="6.06294">
        <ele>269.5</ele>
        <time>2014-03-02T15:59:40Z</time>
      </trkpt>
      <trkpt lat="48.59164" lon="6.06297">
        <ele>270.1</ele>
        <time>2014-03-02T15:59:55Z</time>
      </trkpt>
      <trkpt lat="48.5915" lon="6.06288">
        <ele>269.5</ele>
        <time>2014-03-02T16:00:12Z</time>
      </trkpt>
      <trkpt lat="48.59132" lon="6.06292">
        <ele>268.4</ele>
        <time>2014-03-02T16:00:32Z</time>
      </trkpt>
      <trkpt lat="48.59092" lon="6.06276">
        <ele>264.5</ele>
        <time>2014-03-02T16:01:16Z</time>
      </trkpt>
      <trkpt lat="48.59094" lon="6.06259">
        <ele>260.4</ele>
        <time>2014-03-02T16:01:34Z</time>
      </trkpt>
      <trkpt lat="48.5908" lon="6.06225">
        <ele>262.4</ele>
        <time>2014-03-02T16:02:14Z</time>
      </trkpt>
      <trkpt lat="48.59081" lon="6.06211">
        <ele>262.6</ele>
        <time>2014-03-02T16:02:30Z</time>
      </trkpt>
      <trkpt lat="48.59059" lon="6.06154">
        <ele>266.3</ele>
        <time>2014-03-02T16:03:30Z</time>
      </trkpt>
      <trkpt lat="48.59023" lon="6.06046">
        <ele>265.5</ele>
        <time>2014-03-02T16:05:05Z</time>
      </trkpt>
      <trkpt lat="48.59005" lon="6.06011">
        <ele>266.1</ele>
        <time>2014-03-02T16:05:28Z</time>
      </trkpt>
      <trkpt lat="48.5898" lon="6.05918">
        <ele>267.8</ele>
        <time>2014-03-02T16:06:39Z</time>
      </trkpt>
      <trkpt lat="48.58909" lon="6.05767">
        <ele>268.7</ele>
        <time>2014-03-02T16:08:26Z</time>
      </trkpt>
      <trkpt lat="48.58874" lon="6.05711">
        <ele>268.6</ele>
        <time>2014-03-02T16:09:13Z</time>
      </trkpt>
      <trkpt lat="48.58862" lon="6.05668">
        <ele>268.3</ele>
        <time>2014-03-02T16:09:34Z</time>
      </trkpt>
      <trkpt lat="48.58841" lon="6.0564">
        <ele>268</ele>
        <time>2014-03-02T16:10:02Z</time>
      </trkpt>
      <trkpt lat="48.58807" lon="6.05572">
        <ele>268.2</ele>
        <time>2014-03-02T16:10:56Z</time>
      </trkpt>
      <trkpt lat="48.58795" lon="6.05562">
        <ele>268.2</ele>
        <time>2014-03-02T16:11:10Z</time>
      </trkpt>
      <trkpt lat="48.58751" lon="6.05445">
        <ele>270.5</ele>
        <time>2014-03-02T16:12:29Z</time>
      </trkpt>
      <trkpt lat="48.58741" lon="6.05442">
        <ele>270.2</ele>
        <time>2014-03-02T16:12:39Z</time>
      </trkpt>
      <trkpt lat="48.58716" lon="6.05463">
        <ele>270.1</ele>
        <time>2014-03-02T16:12:59Z</time>
      </trkpt>
      <trkpt lat="48.58648" lon="6.05538">
        <ele>265.9</ele>
        <time>2014-03-02T16:14:38Z</time>
      </trkpt>
      <trkpt lat="48.58639" lon="6.05545">
        <ele>264.4</ele>
        <time>2014-03-02T16:14:49Z</time>
      </trkpt>
      <trkpt lat="48.58635" lon="6.0554">
        <ele>263.5</ele>
        <time>2014-03-02T16:15:06Z</time>
      </trkpt>
      <trkpt lat="48.58603" lon="6.05584">
        <ele>261.6</ele>
        <time>2014-03-02T16:15:59Z</time>
      </trkpt>
      <trkpt lat="48.58548" lon="6.05636">
        <ele>257.6</ele>
        <time>2014-03-02T16:17:00Z</time>
      </trkpt>
      <trkpt lat="48.58533" lon="6.05659">
        <ele>252.9</ele>
        <time>2014-03-02T16:17:46Z</time>
      </trkpt>
      <trkpt lat="48.58514" lon="6.05666">
        <ele>250</ele>
        <time>2014-03-02T16:18:31Z</time>
      </trkpt>
      <trkpt lat="48.58521" lon="6.05657">
        <ele>248.1</ele>
        <time>2014-03-02T16:19:16Z</time>
      </trkpt>
      <trkpt lat="48.58496" lon="6.05611">
        <ele>246.6</ele>
        <time>2014-03-02T16:20:12Z</time>
      </trkpt>
      <trkpt lat="48.58484" lon="6.05568">
        <ele>244.8</ele>
        <time>2014-03-02T16:21:17Z</time>
      </trkpt>
      <trkpt lat="48.58482" lon="6.05572">
        <ele>244.3</ele>
        <time>2014-03-02T16:21:23Z</time>
      </trkpt>
      <trkpt lat="48.58464" lon="6.05533">
        <ele>243.5</ele>
        <time>2014-03-02T16:22:31Z</time>
      </trkpt>
      <trkpt lat="48.58463" lon="6.0552">
        <ele>242.7</ele>
        <time>2014-03-02T16:22:59Z</time>
      </trkpt>
      <trkpt lat="48.58443" lon="6.05477">
        <ele>242.3</ele>
        <time>2014-03-02T16:23:51Z</time>
      </trkpt>
      <trkpt lat="48.58419" lon="6.05454">
        <ele>242.6</ele>
        <time>2014-03-02T16:24:53Z</time>
      </trkpt>
      <trkpt lat="48.58427" lon="6.05453">
        <ele>241.1</ele>
        <time>2014-03-02T16:25:20Z</time>
      </trkpt>
      <trkpt lat="48.5841" lon="6.05428">
        <ele>241.6</ele>
        <time>2014-03-02T16:26:07Z</time>
      </trkpt>
      <trkpt lat="48.58414" lon="6.05426">
        <ele>241.8</ele>
        <time>2014-03-02T16:26:14Z</time>
      </trkpt>
      <trkpt lat="48.58407" lon="6.0543">
        <ele>243.4</ele>
        <time>2014-03-02T16:26:32Z</time>
      </trkpt>
    </trkseg>
  </trk>
</gpx>